Altamahaw, North Carolina
Current Conditions -  °F | °C
As of 6:54 AM on Friday 19 Dec 2014 (Local Time) from KBUY Reporting Station
Few Clouds Few Clouds  
Wind Chill:   Ceiling: Unl
Heat Index:   Visibility: 10mi
Dew Point: -8°   Wind: 3mph
Humidity: 43%   Direction: 340°NNW
Pressure: 30.13"   Gusts: NA
Location:  36.18°N, 79.51°W
Report Text: KBUY 191154Z AUTO 34003KT 10SM FEW070 04/M08 A3013 RMK AO2 SLP205 T00391078 10061 20039 53009
Loading
Personal Weather Stations






























Interactive Weather Map New forecast layout! Learn more

10-Day Weather Forecast

Advertisements
Track Severe Weather on mobile